sensor_id;sensor_type;location;lat;lon;timestamp;P1;durP1;ratioP1;P2;durP2;ratioP2
42140;SDS011;27809;51.864;5.646;2023-07-13T00:02:22;4.95;;;0.77;;
42140;SDS011;27809;51.864;5.646;2023-07-13T00:04:48;2.17;;;0.40;;
42140;SDS011;27809;51.864;5.646;2023-07-13T00:07:14;3.88;;;1.73;;
42140;SDS011;27809;51.864;5.646;2023-07-13T00:09:40;7.13;;;0.85;;
42140;SDS011;27809;51.864;5.646;2023-07-13T00:12:19;1.35;;;0.50;;
42140;SDS011;27809;51.864;5.646;2023-07-13T00:15:01;5.00;;;0.65;;
42140;SDS011;27809;51.864;5.646;2023-07-13T00:17:30;1.30;;;0.32;;
42140;SDS011;27809;51.864;5.646;2023-07-13T00:19:56;3.20;;;0.80;;
42140;SDS011;27809;51.864;5.646;2023-07-13T00:22:22;6.22;;;0.73;;
42140;SDS011;27809;51.864;5.646;2023-07-13T00:24:50;5.85;;;0.68;;
42140;SDS011;27809;51.864;5.646;2023-07-13T00:27:17;4.70;;;1.73;;
42140;SDS011;27809;51.864;5.646;2023-07-13T00:29:43;0.93;;;0.30;;
42140;SDS011;27809;51.864;5.646;2023-07-13T00:32:09;3.13;;;0.60;;
42140;SDS011;27809;51.864;5.646;2023-07-13T00:34:36;3.05;;;0.40;;
42140;SDS011;27809;51.864;5.646;2023-07-13T00:37:02;1.52;;;0.30;;
42140;SDS011;27809;51.864;5.646;2023-07-13T00:39:28;4.35;;;1.20;;
42140;SDS011;27809;51.864;5.646;2023-07-13T00:41:53;3.97;;;0.40;;
42140;SDS011;27809;51.864;5.646;2023-07-13T00:44:19;1.25;;;0.20;;
42140;SDS011;27809;51.864;5.646;2023-07-13T00:46:48;1.13;;;0.45;;
42140;SDS011;27809;51.864;5.646;2023-07-13T00:49:15;3.42;;;0.68;;
42140;SDS011;27809;51.864;5.646;2023-07-13T00:51:45;5.45;;;0.40;;
42140;SDS011;27809;51.864;5.646;2023-07-13T00:54:13;4.18;;;1.30;;
42140;SDS011;27809;51.864;5.646;2023-07-13T00:56:42;5.35;;;0.43;;
42140;SDS011;27809;51.864;5.646;2023-07-13T00:59:09;3.55;;;0.70;;
42140;SDS011;27809;51.864;5.646;2023-07-13T01:01:36;4.47;;;1.02;;
42140;SDS011;27809;51.864;5.646;2023-07-13T01:04:03;3.65;;;1.20;;
42140;SDS011;27809;51.864;5.646;2023-07-13T01:06:28;4.32;;;0.65;;
42140;SDS011;27809;51.864;5.646;2023-07-13T01:08:55;8.25;;;1.08;;
42140;SDS011;27809;51.864;5.646;2023-07-13T01:11:22;5.20;;;0.90;;
42140;SDS011;27809;51.864;5.646;2023-07-13T01:13:48;4.47;;;1.10;;
42140;SDS011;27809;51.864;5.646;2023-07-13T01:16:15;4.68;;;0.85;;
42140;SDS011;27809;51.864;5.646;2023-07-13T01:18:47;4.57;;;0.77;;
42140;SDS011;27809;51.864;5.646;2023-07-13T01:21:12;2.85;;;0.70;;
42140;SDS011;27809;51.864;5.646;2023-07-13T01:23:38;13.82;;;1.33;;
42140;SDS011;27809;51.864;5.646;2023-07-13T01:26:03;4.60;;;0.68;;
42140;SDS011;27809;51.864;5.646;2023-07-13T01:28:29;6.32;;;0.63;;
42140;SDS011;27809;51.864;5.646;2023-07-13T01:30:56;5.95;;;1.67;;
42140;SDS011;27809;51.864;5.646;2023-07-13T01:33:24;1.25;;;0.50;;
42140;SDS011;27809;51.864;5.646;2023-07-13T01:35:50;5.05;;;1.00;;
42140;SDS011;27809;51.864;5.646;2023-07-13T01:38:16;1.35;;;0.82;;
42140;SDS011;27809;51.864;5.646;2023-07-13T01:40:44;5.82;;;1.33;;
42140;SDS011;27809;51.864;5.646;2023-07-13T01:43:09;4.95;;;1.08;;
42140;SDS011;27809;51.864;5.646;2023-07-13T01:45:35;3.50;;;1.10;;
42140;SDS011;27809;51.864;5.646;2023-07-13T01:48:01;4.82;;;0.73;;
42140;SDS011;27809;51.864;5.646;2023-07-13T01:50:27;10.05;;;1.95;;
42140;SDS011;27809;51.864;5.646;2023-07-13T01:52:53;5.65;;;0.93;;
42140;SDS011;27809;51.864;5.646;2023-07-13T01:55:19;2.50;;;0.85;;
42140;SDS011;27809;51.864;5.646;2023-07-13T01:57:45;5.78;;;0.80;;
42140;SDS011;27809;51.864;5.646;2023-07-13T02:00:12;6.43;;;1.27;;
42140;SDS011;27809;51.864;5.646;2023-07-13T02:02:38;4.47;;;1.05;;
42140;SDS011;27809;51.864;5.646;2023-07-13T02:05:04;13.98;;;1.73;;
42140;SDS011;27809;51.864;5.646;2023-07-13T02:07:30;12.18;;;2.88;;
42140;SDS011;27809;51.864;5.646;2023-07-13T02:09:56;8.05;;;1.85;;
42140;SDS011;27809;51.864;5.646;2023-07-13T02:12:21;9.13;;;0.75;;
42140;SDS011;27809;51.864;5.646;2023-07-13T02:14:47;3.05;;;1.23;;
42140;SDS011;27809;51.864;5.646;2023-07-13T02:17:13;6.38;;;1.55;;
42140;SDS011;27809;51.864;5.646;2023-07-13T02:19:38;2.80;;;1.38;;
42140;SDS011;27809;51.864;5.646;2023-07-13T02:22:04;6.75;;;1.27;;
42140;SDS011;27809;51.864;5.646;2023-07-13T02:24:30;3.53;;;0.70;;
42140;SDS011;27809;51.864;5.646;2023-07-13T02:26:55;16.33;;;2.35;;
42140;SDS011;27809;51.864;5.646;2023-07-13T02:29:21;11.48;;;1.50;;
42140;SDS011;27809;51.864;5.646;2023-07-13T02:31:46;5.20;;;1.00;;
42140;SDS011;27809;51.864;5.646;2023-07-13T02:34:12;2.72;;;0.85;;
42140;SDS011;27809;51.864;5.646;2023-07-13T02:36:37;4.53;;;1.65;;
42140;SDS011;27809;51.864;5.646;2023-07-13T02:39:03;9.80;;;1.80;;
42140;SDS011;27809;51.864;5.646;2023-07-13T02:41:30;7.43;;;1.50;;
42140;SDS011;27809;51.864;5.646;2023-07-13T02:43:57;2.38;;;1.13;;
42140;SDS011;27809;51.864;5.646;2023-07-13T02:46:29;12.05;;;1.08;;
42140;SDS011;27809;51.864;5.646;2023-07-13T02:48:55;3.50;;;1.70;;
42140;SDS011;27809;51.864;5.646;2023-07-13T02:51:20;6.10;;;1.40;;
42140;SDS011;27809;51.864;5.646;2023-07-13T02:53:46;6.20;;;1.17;;
42140;SDS011;27809;51.864;5.646;2023-07-13T02:56:12;10.10;;;1.42;;
42140;SDS011;27809;51.864;5.646;2023-07-13T02:58:37;5.13;;;2.45;;
42140;SDS011;27809;51.864;5.646;2023-07-13T03:01:10;10.43;;;2.13;;
42140;SDS011;27809;51.864;5.646;2023-07-13T03:03:37;4.93;;;1.40;;
42140;SDS011;27809;51.864;5.646;2023-07-13T03:06:04;6.22;;;0.93;;
42140;SDS011;27809;51.864;5.646;2023-07-13T03:08:31;10.65;;;2.75;;
42140;SDS011;27809;51.864;5.646;2023-07-13T03:11:03;3.65;;;0.95;;
42140;SDS011;27809;51.864;5.646;2023-07-13T03:13:30;4.10;;;1.33;;
42140;SDS011;27809;51.864;5.646;2023-07-13T03:15:56;5.07;;;1.45;;
42140;SDS011;27809;51.864;5.646;2023-07-13T03:18:22;2.72;;;0.93;;
42140;SDS011;27809;51.864;5.646;2023-07-13T03:20:51;9.82;;;1.67;;
42140;SDS011;27809;51.864;5.646;2023-07-13T03:23:17;10.05;;;1.40;;
42140;SDS011;27809;51.864;5.646;2023-07-13T03:25:44;4.68;;;1.20;;
42140;SDS011;27809;51.864;5.646;2023-07-13T03:28:10;4.40;;;1.65;;
42140;SDS011;27809;51.864;5.646;2023-07-13T03:30:37;5.00;;;1.35;;
42140;SDS011;27809;51.864;5.646;2023-07-13T03:33:02;8.73;;;1.13;;
42140;SDS011;27809;51.864;5.646;2023-07-13T03:35:28;4.90;;;1.42;;
42140;SDS011;27809;51.864;5.646;2023-07-13T03:37:54;5.00;;;2.03;;
42140;SDS011;27809;51.864;5.646;2023-07-13T03:40:19;6.30;;;2.10;;
42140;SDS011;27809;51.864;5.646;2023-07-13T03:42:45;5.68;;;1.83;;
42140;SDS011;27809;51.864;5.646;2023-07-13T03:45:11;7.93;;;1.10;;
42140;SDS011;27809;51.864;5.646;2023-07-13T03:47:37;6.72;;;1.15;;
42140;SDS011;27809;51.864;5.646;2023-07-13T03:50:03;10.80;;;2.58;;
42140;SDS011;27809;51.864;5.646;2023-07-13T03:52:29;13.27;;;1.67;;
42140;SDS011;27809;51.864;5.646;2023-07-13T03:54:54;10.82;;;1.40;;
42140;SDS011;27809;51.864;5.646;2023-07-13T03:57:20;9.27;;;2.63;;
42140;SDS011;27809;51.864;5.646;2023-07-13T03:59:45;8.13;;;1.80;;
42140;SDS011;27809;51.864;5.646;2023-07-13T04:02:11;4.18;;;1.83;;
42140;SDS011;27809;51.864;5.646;2023-07-13T04:04:36;8.23;;;2.03;;
42140;SDS011;27809;51.864;5.646;2023-07-13T04:07:05;5.70;;;1.52;;
42140;SDS011;27809;51.864;5.646;2023-07-13T04:09:33;9.57;;;1.80;;
42140;SDS011;27809;51.864;5.646;2023-07-13T04:11:59;7.70;;;1.67;;
42140;SDS011;27809;51.864;5.646;2023-07-13T04:14:24;10.75;;;2.05;;
42140;SDS011;27809;51.864;5.646;2023-07-13T04:16:50;5.57;;;1.48;;
42140;SDS011;27809;51.864;5.646;2023-07-13T04:19:16;7.65;;;1.85;;
42140;SDS011;27809;51.864;5.646;2023-07-13T04:21:42;6.28;;;1.60;;
42140;SDS011;27809;51.864;5.646;2023-07-13T04:24:08;5.60;;;1.60;;
42140;SDS011;27809;51.864;5.646;2023-07-13T04:26:33;9.40;;;2.20;;
42140;SDS011;27809;51.864;5.646;2023-07-13T04:29:01;6.10;;;2.80;;
42140;SDS011;27809;51.864;5.646;2023-07-13T04:31:28;15.52;;;1.70;;
42140;SDS011;27809;51.864;5.646;2023-07-13T04:33:54;12.85;;;3.88;;
42140;SDS011;27809;51.864;5.646;2023-07-13T04:36:20;9.82;;;2.33;;
42140;SDS011;27809;51.864;5.646;2023-07-13T04:38:45;9.23;;;1.67;;
42140;SDS011;27809;51.864;5.646;2023-07-13T04:41:11;4.43;;;1.83;;
42140;SDS011;27809;51.864;5.646;2023-07-13T04:43:39;5.70;;;2.03;;
42140;SDS011;27809;51.864;5.646;2023-07-13T04:46:06;11.93;;;2.50;;
42140;SDS011;27809;51.864;5.646;2023-07-13T04:48:33;13.00;;;2.38;;
42140;SDS011;27809;51.864;5.646;2023-07-13T04:50:59;7.60;;;2.22;;
42140;SDS011;27809;51.864;5.646;2023-07-13T04:53:25;9.90;;;2.90;;
42140;SDS011;27809;51.864;5.646;2023-07-13T04:55:51;11.02;;;3.33;;
42140;SDS011;27809;51.864;5.646;2023-07-13T04:58:17;8.35;;;2.22;;
42140;SDS011;27809;51.864;5.646;2023-07-13T05:00:43;5.68;;;1.60;;
42140;SDS011;27809;51.864;5.646;2023-07-13T05:03:09;7.50;;;1.73;;
42140;SDS011;27809;51.864;5.646;2023-07-13T05:05:34;11.15;;;2.92;;
42140;SDS011;27809;51.864;5.646;2023-07-13T05:08:00;6.32;;;2.30;;
42140;SDS011;27809;51.864;5.646;2023-07-13T05:10:26;10.80;;;3.40;;
42140;SDS011;27809;51.864;5.646;2023-07-13T05:12:51;7.18;;;2.40;;
42140;SDS011;27809;51.864;5.646;2023-07-13T05:15:17;10.65;;;3.13;;
42140;SDS011;27809;51.864;5.646;2023-07-13T05:17:46;11.10;;;3.22;;
42140;SDS011;27809;51.864;5.646;2023-07-13T05:20:12;12.70;;;3.03;;
42140;SDS011;27809;51.864;5.646;2023-07-13T05:22:38;16.75;;;3.67;;
42140;SDS011;27809;51.864;5.646;2023-07-13T05:25:04;13.00;;;2.03;;
42140;SDS011;27809;51.864;5.646;2023-07-13T05:27:31;15.52;;;4.55;;
42140;SDS011;27809;51.864;5.646;2023-07-13T05:29:56;11.88;;;3.47;;
42140;SDS011;27809;51.864;5.646;2023-07-13T05:32:22;11.07;;;4.13;;
42140;SDS011;27809;51.864;5.646;2023-07-13T05:34:48;9.52;;;2.47;;
42140;SDS011;27809;51.864;5.646;2023-07-13T05:37:13;11.48;;;3.85;;
42140;SDS011;27809;51.864;5.646;2023-07-13T05:39:39;17.13;;;4.30;;
42140;SDS011;27809;51.864;5.646;2023-07-13T05:42:05;9.00;;;3.45;;
42140;SDS011;27809;51.864;5.646;2023-07-13T05:44:31;24.70;;;5.75;;
42140;SDS011;27809;51.864;5.646;2023-07-13T05:46:56;13.98;;;3.53;;
42140;SDS011;27809;51.864;5.646;2023-07-13T05:49:22;21.10;;;4.70;;
42140;SDS011;27809;51.864;5.646;2023-07-13T05:51:48;22.70;;;6.03;;
42140;SDS011;27809;51.864;5.646;2023-07-13T05:54:14;12.02;;;4.15;;
42140;SDS011;27809;51.864;5.646;2023-07-13T05:56:39;16.20;;;4.75;;
42140;SDS011;27809;51.864;5.646;2023-07-13T05:59:05;12.80;;;4.85;;
42140;SDS011;27809;51.864;5.646;2023-07-13T06:01:31;15.70;;;6.15;;
42140;SDS011;27809;51.864;5.646;2023-07-13T06:03:56;13.73;;;5.97;;
42140;SDS011;27809;51.864;5.646;2023-07-13T06:06:22;20.02;;;5.80;;
42140;SDS011;27809;51.864;5.646;2023-07-13T06:08:48;16.95;;;5.90;;
42140;SDS011;27809;51.864;5.646;2023-07-13T06:11:15;20.88;;;6.07;;
42140;SDS011;27809;51.864;5.646;2023-07-13T06:13:43;13.45;;;5.72;;
42140;SDS011;27809;51.864;5.646;2023-07-13T06:16:08;15.73;;;7.05;;
42140;SDS011;27809;51.864;5.646;2023-07-13T06:18:35;27.60;;;6.90;;
42140;SDS011;27809;51.864;5.646;2023-07-13T06:21:05;22.90;;;6.97;;
42140;SDS011;27809;51.864;5.646;2023-07-13T06:23:35;15.20;;;5.95;;
42140;SDS011;27809;51.864;5.646;2023-07-13T06:26:01;22.77;;;6.53;;
42140;SDS011;27809;51.864;5.646;2023-07-13T06:28:28;20.05;;;7.35;;
42140;SDS011;27809;51.864;5.646;2023-07-13T06:30:55;15.57;;;5.80;;
42140;SDS011;27809;51.864;5.646;2023-07-13T06:33:20;21.50;;;6.60;;
42140;SDS011;27809;51.864;5.646;2023-07-13T06:35:46;19.08;;;5.72;;
42140;SDS011;27809;51.864;5.646;2023-07-13T06:38:11;19.40;;;7.15;;
42140;SDS011;27809;51.864;5.646;2023-07-13T06:40:37;19.92;;;5.50;;
42140;SDS011;27809;51.864;5.646;2023-07-13T06:43:03;21.98;;;6.47;;
42140;SDS011;27809;51.864;5.646;2023-07-13T06:45:28;25.42;;;7.28;;
42140;SDS011;27809;51.864;5.646;2023-07-13T06:47:54;17.92;;;6.38;;
42140;SDS011;27809;51.864;5.646;2023-07-13T06:50:20;16.20;;;5.80;;
42140;SDS011;27809;51.864;5.646;2023-07-13T06:52:45;5.70;;;1.10;;
42140;SDS011;27809;51.864;5.646;2023-07-13T06:55:11;8.68;;;2.95;;
42140;SDS011;27809;51.864;5.646;2023-07-13T06:57:36;16.50;;;6.30;;
42140;SDS011;27809;51.864;5.646;2023-07-13T07:00:02;17.35;;;6.82;;
42140;SDS011;27809;51.864;5.646;2023-07-13T07:02:28;28.63;;;7.97;;
42140;SDS011;27809;51.864;5.646;2023-07-13T07:04:54;17.40;;;7.45;;
42140;SDS011;27809;51.864;5.646;2023-07-13T07:07:19;14.43;;;6.93;;
42140;SDS011;27809;51.864;5.646;2023-07-13T07:09:48;17.70;;;7.60;;
42140;SDS011;27809;51.864;5.646;2023-07-13T07:12:13;6.85;;;2.58;;
42140;SDS011;27809;51.864;5.646;2023-07-13T07:14:39;11.40;;;6.43;;
42140;SDS011;27809;51.864;5.646;2023-07-13T07:17:04;18.85;;;8.68;;
42140;SDS011;27809;51.864;5.646;2023-07-13T07:19:30;16.67;;;8.05;;
42140;SDS011;27809;51.864;5.646;2023-07-13T07:21:56;23.52;;;8.10;;
42140;SDS011;27809;51.864;5.646;2023-07-13T07:24:21;17.20;;;7.88;;
42140;SDS011;27809;51.864;5.646;2023-07-13T07:26:47;19.83;;;7.68;;
42140;SDS011;27809;51.864;5.646;2023-07-13T07:29:12;15.85;;;7.63;;
42140;SDS011;27809;51.864;5.646;2023-07-13T07:31:38;33.72;;;10.20;;
42140;SDS011;27809;51.864;5.646;2023-07-13T07:34:04;22.10;;;9.25;;
42140;SDS011;27809;51.864;5.646;2023-07-13T07:36:29;17.40;;;8.00;;
42140;SDS011;27809;51.864;5.646;2023-07-13T07:38:56;21.63;;;8.85;;
42140;SDS011;27809;51.864;5.646;2023-07-13T07:41:21;17.95;;;7.63;;
42140;SDS011;27809;51.864;5.646;2023-07-13T07:43:47;14.50;;;7.85;;
42140;SDS011;27809;51.864;5.646;2023-07-13T07:46:13;17.00;;;6.53;;
42140;SDS011;27809;51.864;5.646;2023-07-13T07:48:38;19.38;;;8.27;;
42140;SDS011;27809;51.864;5.646;2023-07-13T07:51:04;21.42;;;6.78;;
42140;SDS011;27809;51.864;5.646;2023-07-13T07:53:30;18.38;;;8.18;;
42140;SDS011;27809;51.864;5.646;2023-07-13T07:55:55;4.88;;;2.08;;
42140;SDS011;27809;51.864;5.646;2023-07-13T07:58:21;20.23;;;7.90;;
42140;SDS011;27809;51.864;5.646;2023-07-13T08:00:47;14.93;;;8.38;;
42140;SDS011;27809;51.864;5.646;2023-07-13T08:03:12;15.63;;;6.32;;
42140;SDS011;27809;51.864;5.646;2023-07-13T08:05:38;15.85;;;6.80;;
42140;SDS011;27809;51.864;5.646;2023-07-13T08:08:03;20.35;;;6.43;;
42140;SDS011;27809;51.864;5.646;2023-07-13T08:10:29;13.60;;;6.05;;
42140;SDS011;27809;51.864;5.646;2023-07-13T08:12:55;16.50;;;6.55;;
42140;SDS011;27809;51.864;5.646;2023-07-13T08:15:20;11.05;;;5.55;;
42140;SDS011;27809;51.864;5.646;2023-07-13T08:17:47;12.07;;;4.68;;
42140;SDS011;27809;51.864;5.646;2023-07-13T08:20:13;14.68;;;5.47;;
42140;SDS011;27809;51.864;5.646;2023-07-13T08:22:40;13.50;;;6.25;;
42140;SDS011;27809;51.864;5.646;2023-07-13T08:25:05;13.73;;;6.15;;
42140;SDS011;27809;51.864;5.646;2023-07-13T08:27:32;18.77;;;6.75;;
42140;SDS011;27809;51.864;5.646;2023-07-13T08:29:58;10.07;;;4.00;;
42140;SDS011;27809;51.864;5.646;2023-07-13T08:32:23;14.93;;;4.88;;
42140;SDS011;27809;51.864;5.646;2023-07-13T08:34:50;9.43;;;4.90;;
42140;SDS011;27809;51.864;5.646;2023-07-13T08:37:16;11.00;;;5.03;;
42140;SDS011;27809;51.864;5.646;2023-07-13T08:39:42;9.15;;;5.15;;
42140;SDS011;27809;51.864;5.646;2023-07-13T08:45:04;10.13;;;3.75;;
42140;SDS011;27809;51.864;5.646;2023-07-13T08:50:28;10.15;;;2.72;;
42140;SDS011;27809;51.864;5.646;2023-07-13T08:52:59;7.93;;;3.67;;
42140;SDS011;27809;51.864;5.646;2023-07-13T08:55:29;7.88;;;2.50;;
42140;SDS011;27809;51.864;5.646;2023-07-13T08:58:14;8.60;;;3.25;;
42140;SDS011;27809;51.864;5.646;2023-07-13T09:00:48;7.63;;;2.47;;
42140;SDS011;27809;51.864;5.646;2023-07-13T09:03:22;7.90;;;2.83;;
42140;SDS011;27809;51.864;5.646;2023-07-13T09:05:54;7.18;;;2.53;;
42140;SDS011;27809;51.864;5.646;2023-07-13T09:16:16;8.25;;;3.80;;
42140;SDS011;27809;51.864;5.646;2023-07-13T09:18:53;20.13;;;4.65;;
42140;SDS011;27809;51.864;5.646;2023-07-13T09:21:31;8.90;;;4.15;;
42140;SDS011;27809;51.864;5.646;2023-07-13T09:24:14;13.20;;;3.65;;
42140;SDS011;27809;51.864;5.646;2023-07-13T09:26:58;8.45;;;3.83;;
42140;SDS011;27809;51.864;5.646;2023-07-13T09:29:34;7.15;;;3.83;;
42140;SDS011;27809;51.864;5.646;2023-07-13T09:32:04;12.68;;;4.05;;
42140;SDS011;27809;51.864;5.646;2023-07-13T09:34:32;11.40;;;4.13;;
42140;SDS011;27809;51.864;5.646;2023-07-13T09:36:58;13.93;;;3.95;;
42140;SDS011;27809;51.864;5.646;2023-07-13T09:41:53;9.73;;;5.35;;
42140;SDS011;27809;51.864;5.646;2023-07-13T09:44:30;9.07;;;4.72;;
42140;SDS011;27809;51.864;5.646;2023-07-13T09:46:59;9.52;;;5.00;;
42140;SDS011;27809;51.864;5.646;2023-07-13T09:49:27;12.93;;;5.60;;
42140;SDS011;27809;51.864;5.646;2023-07-13T09:52:09;13.35;;;4.40;;
42140;SDS011;27809;51.864;5.646;2023-07-13T09:54:37;17.73;;;5.00;;
42140;SDS011;27809;51.864;5.646;2023-07-13T09:57:08;9.73;;;3.75;;
42140;SDS011;27809;51.864;5.646;2023-07-13T09:59:43;6.78;;;3.25;;
42140;SDS011;27809;51.864;5.646;2023-07-13T10:07:23;7.20;;;3.30;;
42140;SDS011;27809;51.864;5.646;2023-07-13T10:09:57;11.60;;;3.80;;
42140;SDS011;27809;51.864;5.646;2023-07-13T10:12:26;8.93;;;2.20;;
42140;SDS011;27809;51.864;5.646;2023-07-13T10:14:54;9.40;;;2.13;;
42140;SDS011;27809;51.864;5.646;2023-07-13T10:17:25;8.23;;;1.55;;
42140;SDS011;27809;51.864;5.646;2023-07-13T10:19:55;6.47;;;1.42;;
42140;SDS011;27809;51.864;5.646;2023-07-13T10:22:42;4.18;;;1.58;;
42140;SDS011;27809;51.864;5.646;2023-07-13T10:25:21;5.10;;;1.48;;
42140;SDS011;27809;51.864;5.646;2023-07-13T10:27:50;4.57;;;1.33;;
42140;SDS011;27809;51.864;5.646;2023-07-13T10:30:22;13.02;;;2.55;;
42140;SDS011;27809;51.864;5.646;2023-07-13T10:32:53;8.38;;;1.52;;
42140;SDS011;27809;51.864;5.646;2023-07-13T10:35:20;10.90;;;2.25;;
42140;SDS011;27809;51.864;5.646;2023-07-13T10:37:49;5.32;;;1.90;;
42140;SDS011;27809;51.864;5.646;2023-07-13T10:40:22;4.82;;;1.73;;
42140;SDS011;27809;51.864;5.646;2023-07-13T10:42:52;8.07;;;2.63;;
42140;SDS011;27809;51.864;5.646;2023-07-13T10:45:21;5.40;;;1.67;;
42140;SDS011;27809;51.864;5.646;2023-07-13T10:47:49;3.15;;;0.55;;
42140;SDS011;27809;51.864;5.646;2023-07-13T10:50:22;6.85;;;1.58;;
42140;SDS011;27809;51.864;5.646;2023-07-13T10:52:53;5.35;;;1.45;;
42140;SDS011;27809;51.864;5.646;2023-07-13T10:58:23;4.65;;;1.48;;
42140;SDS011;27809;51.864;5.646;2023-07-13T11:01:07;10.48;;;1.77;;
42140;SDS011;27809;51.864;5.646;2023-07-13T11:03:55;6.50;;;1.42;;
42140;SDS011;27809;51.864;5.646;2023-07-13T11:08:55;3.95;;;1.63;;
42140;SDS011;27809;51.864;5.646;2023-07-13T11:13:59;5.15;;;2.35;;
42140;SDS011;27809;51.864;5.646;2023-07-13T11:27:32;2.58;;;1.33;;
42140;SDS011;27809;51.864;5.646;2023-07-13T11:33:10;3.65;;;1.73;;
42140;SDS011;27809;51.864;5.646;2023-07-13T11:35:58;12.77;;;2.00;;
42140;SDS011;27809;51.864;5.646;2023-07-13T11:38:47;3.15;;;0.60;;
42140;SDS011;27809;51.864;5.646;2023-07-13T11:41:19;5.95;;;1.25;;
42140;SDS011;27809;51.864;5.646;2023-07-13T11:44:13;2.13;;;0.60;;
42140;SDS011;27809;51.864;5.646;2023-07-13T11:46:45;2.97;;;1.33;;
42140;SDS011;27809;51.864;5.646;2023-07-13T11:49:19;2.22;;;1.00;;
42140;SDS011;27809;51.864;5.646;2023-07-13T11:51:46;4.75;;;1.23;;
42140;SDS011;27809;51.864;5.646;2023-07-13T11:56:51;2.83;;;0.82;;
42140;SDS011;27809;51.864;5.646;2023-07-13T11:59:18;7.43;;;2.00;;
42140;SDS011;27809;51.864;5.646;2023-07-13T12:01:53;3.65;;;1.02;;
42140;SDS011;27809;51.864;5.646;2023-07-13T12:04:24;7.65;;;1.30;;
42140;SDS011;27809;51.864;5.646;2023-07-13T12:07:35;2.78;;;1.05;;
42140;SDS011;27809;51.864;5.646;2023-07-13T12:09:42;7.28;;;1.00;;
42140;SDS011;27809;51.864;5.646;2023-07-13T12:12:12;4.93;;;0.70;;
42140;SDS011;27809;51.864;5.646;2023-07-13T12:14:39;2.65;;;0.60;;
42140;SDS011;27809;51.864;5.646;2023-07-13T12:17:19;4.93;;;1.85;;
42140;SDS011;27809;51.864;5.646;2023-07-13T12:19:50;4.68;;;0.80;;
42140;SDS011;27809;51.864;5.646;2023-07-13T12:22:17;7.68;;;1.33;;
42140;SDS011;27809;51.864;5.646;2023-07-13T12:24:44;3.63;;;0.57;;
42140;SDS011;27809;51.864;5.646;2023-07-13T12:27:44;3.58;;;0.95;;
42140;SDS011;27809;51.864;5.646;2023-07-13T12:30:04;4.25;;;0.70;;
42140;SDS011;27809;51.864;5.646;2023-07-13T12:32:56;1.83;;;0.50;;
42140;SDS011;27809;51.864;5.646;2023-07-13T12:35:23;13.90;;;2.17;;
42140;SDS011;27809;51.864;5.646;2023-07-13T12:37:50;3.05;;;0.85;;
42140;SDS011;27809;51.864;5.646;2023-07-13T12:40:19;30.52;;;2.80;;
42140;SDS011;27809;51.864;5.646;2023-07-13T12:42:47;4.75;;;0.85;;
42140;SDS011;27809;51.864;5.646;2023-07-13T12:45:20;4.15;;;0.60;;
42140;SDS011;27809;51.864;5.646;2023-07-13T12:47:57;10.05;;;0.85;;
42140;SDS011;27809;51.864;5.646;2023-07-13T12:50:29;10.55;;;1.00;;
42140;SDS011;27809;51.864;5.646;2023-07-13T12:53:03;6.05;;;1.15;;
42140;SDS011;27809;51.864;5.646;2023-07-13T12:55:39;3.63;;;0.65;;
42140;SDS011;27809;51.864;5.646;2023-07-13T12:58:16;1.98;;;0.63;;
42140;SDS011;27809;51.864;5.646;2023-07-13T13:00:49;1.08;;;0.57;;
42140;SDS011;27809;51.864;5.646;2023-07-13T13:05:47;2.58;;;1.08;;
42140;SDS011;27809;51.864;5.646;2023-07-13T13:08:15;2.15;;;0.47;;
42140;SDS011;27809;51.864;5.646;2023-07-13T13:10:40;4.35;;;1.15;;
42140;SDS011;27809;51.864;5.646;2023-07-13T13:13:06;2.85;;;0.38;;
42140;SDS011;27809;51.864;5.646;2023-07-13T13:15:33;1.95;;;0.55;;
42140;SDS011;27809;51.864;5.646;2023-07-13T13:17:59;4.70;;;0.50;;
42140;SDS011;27809;51.864;5.646;2023-07-13T13:20:24;1.17;;;0.28;;
42140;SDS011;27809;51.864;5.646;2023-07-13T13:22:53;1.15;;;0.30;;
42140;SDS011;27809;51.864;5.646;2023-07-13T13:25:20;15.43;;;1.30;;
42140;SDS011;27809;51.864;5.646;2023-07-13T13:27:45;7.55;;;0.65;;
42140;SDS011;27809;51.864;5.646;2023-07-13T13:30:12;5.32;;;1.15;;
42140;SDS011;27809;51.864;5.646;2023-07-13T13:32:40;6.28;;;0.70;;
42140;SDS011;27809;51.864;5.646;2023-07-13T13:35:19;1.58;;;0.50;;
42140;SDS011;27809;51.864;5.646;2023-07-13T13:37:46;7.97;;;0.68;;
42140;SDS011;27809;51.864;5.646;2023-07-13T13:40:17;2.63;;;0.50;;
42140;SDS011;27809;51.864;5.646;2023-07-13T13:42:44;10.50;;;1.20;;
42140;SDS011;27809;51.864;5.646;2023-07-13T13:45:10;3.38;;;0.50;;
42140;SDS011;27809;51.864;5.646;2023-07-13T13:47:42;10.60;;;1.23;;
42140;SDS011;27809;51.864;5.646;2023-07-13T13:50:12;2.90;;;0.77;;
42140;SDS011;27809;51.864;5.646;2023-07-13T13:52:39;4.80;;;0.57;;
42140;SDS011;27809;51.864;5.646;2023-07-13T13:55:15;1.48;;;0.65;;
42140;SDS011;27809;51.864;5.646;2023-07-13T13:57:44;2.08;;;0.60;;
42140;SDS011;27809;51.864;5.646;2023-07-13T14:00:10;1.30;;;0.30;;
42140;SDS011;27809;51.864;5.646;2023-07-13T14:02:39;1.05;;;0.30;;
42140;SDS011;27809;51.864;5.646;2023-07-13T14:05:09;1.58;;;0.55;;
42140;SDS011;27809;51.864;5.646;2023-07-13T14:07:36;4.85;;;0.43;;
42140;SDS011;27809;51.864;5.646;2023-07-13T14:10:08;3.15;;;0.50;;
42140;SDS011;27809;51.864;5.646;2023-07-13T14:12:40;3.13;;;0.50;;
42140;SDS011;27809;51.864;5.646;2023-07-13T14:15:12;3.05;;;0.30;;
42140;SDS011;27809;51.864;5.646;2023-07-13T14:17:46;4.50;;;0.38;;
42140;SDS011;27809;51.864;5.646;2023-07-13T14:20:15;2.05;;;0.43;;
42140;SDS011;27809;51.864;5.646;2023-07-13T14:22:41;10.43;;;1.48;;
42140;SDS011;27809;51.864;5.646;2023-07-13T14:25:11;4.75;;;0.70;;
42140;SDS011;27809;51.864;5.646;2023-07-13T14:27:37;3.00;;;0.30;;
42140;SDS011;27809;51.864;5.646;2023-07-13T14:30:07;4.13;;;0.55;;
42140;SDS011;27809;51.864;5.646;2023-07-13T14:32:39;4.57;;;0.80;;
42140;SDS011;27809;51.864;5.646;2023-07-13T14:35:05;2.85;;;0.28;;
42140;SDS011;27809;51.864;5.646;2023-07-13T14:37:32;0.68;;;0.20;;
42140;SDS011;27809;51.864;5.646;2023-07-13T14:39:58;0.80;;;0.25;;
42140;SDS011;27809;51.864;5.646;2023-07-13T14:42:23;3.60;;;0.52;;
42140;SDS011;27809;51.864;5.646;2023-07-13T14:44:49;1.65;;;0.35;;
42140;SDS011;27809;51.864;5.646;2023-07-13T14:47:15;3.25;;;0.70;;
42140;SDS011;27809;51.864;5.646;2023-07-13T14:49:43;1.23;;;0.60;;
42140;SDS011;27809;51.864;5.646;2023-07-13T14:54:40;1.83;;;0.40;;
42140;SDS011;27809;51.864;5.646;2023-07-13T14:57:15;2.80;;;0.25;;
42140;SDS011;27809;51.864;5.646;2023-07-13T14:59:42;4.18;;;0.93;;
42140;SDS011;27809;51.864;5.646;2023-07-13T15:02:14;2.40;;;0.75;;
42140;SDS011;27809;51.864;5.646;2023-07-13T15:04:46;3.38;;;0.30;;
42140;SDS011;27809;51.864;5.646;2023-07-13T15:07:12;0.82;;;0.30;;
42140;SDS011;27809;51.864;5.646;2023-07-13T15:09:40;2.40;;;0.40;;
42140;SDS011;27809;51.864;5.646;2023-07-13T15:12:06;2.08;;;0.60;;
42140;SDS011;27809;51.864;5.646;2023-07-13T15:14:32;6.25;;;1.17;;
42140;SDS011;27809;51.864;5.646;2023-07-13T15:16:57;1.25;;;0.68;;
42140;SDS011;27809;51.864;5.646;2023-07-13T15:19:24;2.03;;;0.82;;
42140;SDS011;27809;51.864;5.646;2023-07-13T15:21:51;0.82;;;0.43;;
42140;SDS011;27809;51.864;5.646;2023-07-13T15:24:19;2.53;;;0.30;;
42140;SDS011;27809;51.864;5.646;2023-07-13T15:26:46;1.50;;;0.50;;
42140;SDS011;27809;51.864;5.646;2023-07-13T15:29:14;3.55;;;0.50;;
42140;SDS011;27809;51.864;5.646;2023-07-13T15:31:40;0.90;;;0.30;;
42140;SDS011;27809;51.864;5.646;2023-07-13T15:34:13;3.55;;;1.05;;
42140;SDS011;27809;51.864;5.646;2023-07-13T15:36:41;0.77;;;0.28;;
42140;SDS011;27809;51.864;5.646;2023-07-13T15:39:06;2.88;;;0.70;;
42140;SDS011;27809;51.864;5.646;2023-07-13T15:41:38;0.52;;;0.20;;